Siempre Kalima — EA3951 — position and weather

sailwx.info

Track history (hours):
 
Tides and Currents Weather Stations Pressure Air Temp Water Temp Dewpoint Dewpoint Depression Visibility Wind Speed Wind Dir Waves Ship Positions

Siempre Kalima

Last reported at 2017-Oct-16 21:23 UTC. Time now 2017-Oct-17 01:05 UTC.
Position N 37°37' W 000°21'.

Length 25 m; draft 3.2 m.

Type: Fishing. MMSI: 224082260.

Date/timePositionNaut miles runAvg speedWind from/ knotsBaromVisibWave heightAir tempDewpointWater temp
2017-Oct-16 21:23N 37°37' W 000°21'5 0.2
2017-Oct-16 00:11N 37°41' W 000°18'1 0.5
2017-Oct-15 22:44N 37°41' W 000°17'6 3.0
2017-Oct-15 20:43N 37°38' W 000°24'10 0.5
2017-Oct-14 23:44N 37°36' W 000°13'3 0.6
2017-Oct-14 19:42N 37°37' W 000°16'3 4.6
2017-Oct-14 19:05N 37°38' W 000°12'19 7.0
2017-Oct-14 16:19N 37°55' W 000°02'3 4.7
2017-Oct-14 15:46N 37°55' W 000°05'3 7.9
2017-Oct-14 15:25N 37°53' W 000°06'17 1.4
2017-Oct-14 03:06N 37°38' W 000°16'0 4.2
2017-Oct-14 03:00N 37°37' W 000°17'2 3.7
2017-Oct-14 02:29N 37°36' W 000°18'2 3.6
2017-Oct-14 02:00N 37°35' W 000°20'2 3.1
2017-Oct-14 01:25N 37°35' W 000°22'2 3.7
2017-Oct-14 01:00N 37°34' W 000°24'2 3.1
2017-Oct-14 00:30N 37°34' W 000°26'1 0.6
2017-Oct-13 23:21N 37°35' W 000°25'0 0.4
2017-Oct-13 22:58N 37°35' W 000°25'1 1.9
2017-Oct-13 22:30N 37°35' W 000°24'0 0.4
2017-Oct-13 21:32N 37°35' W 000°24'0 0.4
2017-Oct-13 21:30N 37°35' W 000°24'0 0.4
2017-Oct-13 21:00N 37°35' W 000°23'1 1.3
2017-Oct-13 20:30N 37°35' W 000°23'2 5.0
2017-Oct-13 20:00N 37°36' W 000°19'3 5.1
2017-Oct-13 19:30N 37°36' W 000°16'3 5.2
2017-Oct-13 19:00N 37°37' W 000°13'3 5.1
2017-Oct-13 18:30N 37°39' W 000°10'4 8.6
2017-Oct-13 18:00N 37°42' W 000°08'5 8.4
2017-Oct-13 17:24N 37°47' W 000°06'3 8.1
2017-Oct-13 17:00N 37°50' W 000°04'3 5.5
2017-Oct-13 16:30N 37°52' W 000°06'4 8.1
2017-Oct-13 16:00N 37°48' W 000°08'4 8.0
2017-Oct-13 15:29N 37°45' W 000°10'4 7.6
2017-Oct-13 15:00N 37°41' W 000°12'3 6.3
2017-Oct-13 14:30N 37°39' W 000°14'4 7.3
2017-Oct-13 14:00N 37°36' W 000°18'5 5.3
2017-Oct-13 12:58N 37°35' W 000°24'6 3.3
2017-Oct-13 11:16N 37°35' W 000°32'9 8.9
2017-Oct-13 10:13N 37°34' W 000°43'2 9.2
2017-Oct-13 10:00N 37°33' W 000°46'  
2017-Oct-10 13:44N 38°47' E 001°21'2 8.8
2017-Oct-10 13:27N 38°48' E 001°24'4 8.9
2017-Oct-10 12:59N 38°49' E 001°29'7 0.4
2017-Oct-09 20:39N 38°55' E 001°33'1 7.8
2017-Oct-09 20:27N 38°55' E 001°32'3 7.5
2017-Oct-09 20:00N 38°54' E 001°27'1 2.4
2017-Oct-09 19:29N 38°55' E 001°26'0 0.0
2017-Oct-09 18:59N 38°55' E 001°26'0 0.0
2017-Oct-09 18:29N 38°55' E 001°26'0 0.4
2017-Oct-09 18:00N 38°55' E 001°26'4 7.4
2017-Oct-09 17:30N 38°54' E 001°31'4 7.7
2017-Oct-09 17:00N 38°54' E 001°36'4 0.1
2017-Oct-07 21:52N 38°57' E 001°38'1 1.2
2017-Oct-07 20:46N 38°56' E 001°38'0 0.3
2017-Oct-07 20:20N 38°56' E 001°38'0 0.2
2017-Oct-07 19:55N 38°56' E 001°38'2 0.3
2017-Oct-07 13:19N 38°54' E 001°36'3 8.9
2017-Oct-07 13:00N 38°53' E 001°33'5 8.8
2017-Oct-07 12:29N 38°50' E 001°29'  
Track history (hours):
 
Tides and Currents Weather Stations Pressure Air Temp Water Temp Dewpoint Dewpoint Depression Visibility Wind Speed Wind Dir Waves Ship Positions

Siempre Kalima

Last reported at 2017-Oct-16 21:23 UTC. Time now 2017-Oct-17 01:05 UTC.
Position N 37°37' W 000°21'.

Length 25 m; draft 3.2 m.

Type: Fishing. MMSI: 224082260.

Date/timePositionNaut miles runAvg speedWind from/ knotsBaromVisibWave heightAir tempDewpointWater temp
2017-Oct-16 21:23N 37°37' W 000°21'5 0.2
2017-Oct-16 00:11N 37°41' W 000°18'1 0.5
2017-Oct-15 22:44N 37°41' W 000°17'6 3.0
2017-Oct-15 20:43N 37°38' W 000°24'10 0.5
2017-Oct-14 23:44N 37°36' W 000°13'3 0.6
2017-Oct-14 19:42N 37°37' W 000°16'3 4.6
2017-Oct-14 19:05N 37°38' W 000°12'19 7.0
2017-Oct-14 16:19N 37°55' W 000°02'3 4.7
2017-Oct-14 15:46N 37°55' W 000°05'3 7.9
2017-Oct-14 15:25N 37°53' W 000°06'17 1.4
2017-Oct-14 03:06N 37°38' W 000°16'0 4.2
2017-Oct-14 03:00N 37°37' W 000°17'2 3.7
2017-Oct-14 02:29N 37°36' W 000°18'2 3.6
2017-Oct-14 02:00N 37°35' W 000°20'2 3.1
2017-Oct-14 01:25N 37°35' W 000°22'2 3.7
2017-Oct-14 01:00N 37°34' W 000°24'2 3.1
2017-Oct-14 00:30N 37°34' W 000°26'1 0.6
2017-Oct-13 23:21N 37°35' W 000°25'0 0.4
2017-Oct-13 22:58N 37°35' W 000°25'1 1.9
2017-Oct-13 22:30N 37°35' W 000°24'0 0.4
2017-Oct-13 21:32N 37°35' W 000°24'0 0.4
2017-Oct-13 21:30N 37°35' W 000°24'0 0.4
2017-Oct-13 21:00N 37°35' W 000°23'1 1.3
2017-Oct-13 20:30N 37°35' W 000°23'2 5.0
2017-Oct-13 20:00N 37°36' W 000°19'3 5.1
2017-Oct-13 19:30N 37°36' W 000°16'3 5.2
2017-Oct-13 19:00N 37°37' W 000°13'3 5.1
2017-Oct-13 18:30N 37°39' W 000°10'4 8.6
2017-Oct-13 18:00N 37°42' W 000°08'5 8.4
2017-Oct-13 17:24N 37°47' W 000°06'3 8.1
2017-Oct-13 17:00N 37°50' W 000°04'3 5.5
2017-Oct-13 16:30N 37°52' W 000°06'4 8.1
2017-Oct-13 16:00N 37°48' W 000°08'4 8.0
2017-Oct-13 15:29N 37°45' W 000°10'4 7.6
2017-Oct-13 15:00N 37°41' W 000°12'3 6.3
2017-Oct-13 14:30N 37°39' W 000°14'4 7.3
2017-Oct-13 14:00N 37°36' W 000°18'5 5.3
2017-Oct-13 12:58N 37°35' W 000°24'6 3.3
2017-Oct-13 11:16N 37°35' W 000°32'9 8.9
2017-Oct-13 10:13N 37°34' W 000°43'2 9.2
2017-Oct-13 10:00N 37°33' W 000°46'  
2017-Oct-10 13:44N 38°47' E 001°21'2 8.8
2017-Oct-10 13:27N 38°48' E 001°24'4 8.9
2017-Oct-10 12:59N 38°49' E 001°29'7 0.4
2017-Oct-09 20:39N 38°55' E 001°33'1 7.8
2017-Oct-09 20:27N 38°55' E 001°32'3 7.5
2017-Oct-09 20:00N 38°54' E 001°27'1 2.4
2017-Oct-09 19:29N 38°55' E 001°26'0 0.0
2017-Oct-09 18:59N 38°55' E 001°26'0 0.0
2017-Oct-09 18:29N 38°55' E 001°26'0 0.4
2017-Oct-09 18:00N 38°55' E 001°26'4 7.4
2017-Oct-09 17:30N 38°54' E 001°31'4 7.7
2017-Oct-09 17:00N 38°54' E 001°36'4 0.1
2017-Oct-07 21:52N 38°57' E 001°38'1 1.2
2017-Oct-07 20:46N 38°56' E 001°38'0 0.3
2017-Oct-07 20:20N 38°56' E 001°38'0 0.2
2017-Oct-07 19:55N 38°56' E 001°38'2 0.3
2017-Oct-07 13:19N 38°54' E 001°36'3 8.9
2017-Oct-07 13:00N 38°53' E 001°33'5 8.8
2017-Oct-07 12:29N 38°50' E 001°29'  

Dump ship's entire track history